Ottoman Nobility — TCDA2 — position and weather

sailwx.info

Track history (hours):
 
Tides and Currents Weather Stations Pressure Air Temp Water Temp Dewpoint Dewpoint Depression Visibility Wind Speed Wind Dir Waves Ship Positions

Ottoman Nobility

Last reported at 2016-Feb-03 05:31 UTC. Time now 2016-Feb-06 20:44 UTC.
Position N 07°41' W 014°51'.

Length 269 m; draft 8.6 m.

Type: Ship. MMSI: 271000773.

Date/timePositionNaut miles runAvg speedWind from/ knotsBaromVisibWave heightAir tempDewpointWater temp
2016-Feb-03 05:31N 07°41' W 014°51'1210.5
2016-Feb-03 04:24N 07°49' W 014°59'910.3
2016-Feb-03 03:33N 07°56' W 015°05'1110.5
2016-Feb-03 02:29N 08°04' W 015°13'1010.5
2016-Feb-03 01:33N 08°10' W 015°20'6510.7
2016-Feb-02 19:31N 08°57' W 016°05'6811.1
2016-Feb-02 13:24N 09°46' W 016°52'  
2016-Jan-29 08:13N 27°34' W 015°17'711.1
2016-Jan-29 07:33N 27°41' W 015°13'1111.2
2016-Jan-29 06:33N 27°52' W 015°13'1110.8
2016-Jan-29 05:33N 28°02' W 015°17'7 6.8
2016-Jan-29 04:33N 28°07' W 015°22'3 2.8
2016-Jan-29 03:33N 28°09' W 015°20'8 7.9
2016-Jan-29 02:33N 28°13' W 015°12'1111.2
2016-Jan-29 01:33N 28°19' W 015°01'1111.1
2016-Jan-29 00:33N 28°27' W 014°53'1211.5
2016-Jan-28 23:33N 28°38' W 014°48'  
2016-Jan-26 13:34N 35°59' W 005°31'8 8.2
2016-Jan-26 12:34N 36°04' W 005°22'4 3.8
2016-Jan-26 11:32N 36°07' W 005°24'0 0.1
2016-Jan-26 07:29N 36°07' W 005°24'0 0.1
2016-Jan-26 06:29N 36°07' W 005°24'0 0.1
2016-Jan-26 04:29N 36°07' W 005°25'0 0.1
2016-Jan-26 03:32N 36°07' W 005°24'0 0.0
2016-Jan-26 02:32N 36°07' W 005°24'0 0.1
2016-Jan-26 01:32N 36°07' W 005°24'0 0.0
2016-Jan-26 00:32N 36°07' W 005°24'0 0.0
2016-Jan-25 23:32N 36°07' W 005°24'0 0.2
2016-Jan-25 22:32N 36°07' W 005°25'0 0.0
2016-Jan-25 18:32N 36°07' W 005°25'0 0.1
2016-Jan-25 17:32N 36°07' W 005°25'0 0.0
2016-Jan-25 16:32N 36°07' W 005°24'0 0.0
2016-Jan-25 15:32N 36°07' W 005°25'0 0.1
2016-Jan-25 14:32N 36°07' W 005°24'0 0.0
2016-Jan-25 13:11N 36°07' W 005°24'0 0.0
2016-Jan-25 12:32N 36°07' W 005°24'0 0.0
2016-Jan-25 11:32N 36°07' W 005°25'0 0.0
2016-Jan-25 10:32N 36°07' W 005°25'0 0.1
2016-Jan-25 09:32N 36°07' W 005°25'0 0.1
2016-Jan-25 08:32N 36°07' W 005°25'0 0.0
2016-Jan-25 07:29N 36°07' W 005°25'0 0.0
2016-Jan-25 06:32N 36°07' W 005°25'0 0.0
2016-Jan-25 05:32N 36°07' W 005°25'0 0.0
2016-Jan-25 04:26N 36°07' W 005°25'0 0.1
2016-Jan-25 03:32N 36°07' W 005°25'0 0.1
2016-Jan-25 02:26N 36°07' W 005°25'0 0.0
2016-Jan-25 01:32N 36°07' W 005°24'0 0.0
2016-Jan-25 00:32N 36°07' W 005°24'0 0.0
2016-Jan-24 23:32N 36°07' W 005°24'0 0.0
2016-Jan-24 22:32N 36°07' W 005°24'0 0.0
2016-Jan-24 21:11N 36°07' W 005°25'0 0.0
2016-Jan-24 20:32N 36°07' W 005°25'0 0.0
2016-Jan-24 19:32N 36°07' W 005°25'0 0.0
2016-Jan-24 18:32N 36°07' W 005°25'0 0.0
2016-Jan-24 17:32N 36°07' W 005°25'0 0.1
2016-Jan-24 16:32N 36°07' W 005°25'0 0.1
2016-Jan-24 15:32N 36°07' W 005°24'0 0.0
2016-Jan-24 14:32N 36°07' W 005°24'0 0.0
2016-Jan-24 13:32N 36°07' W 005°24'0 0.0
2016-Jan-24 12:32N 36°07' W 005°24'0 0.0
2016-Jan-24 11:32N 36°07' W 005°24'0 0.1
2016-Jan-24 10:32N 36°07' W 005°25'0 0.0
2016-Jan-24 09:32N 36°07' W 005°25'0 0.0
2016-Jan-24 08:32N 36°07' W 005°25'0 0.0
2016-Jan-24 07:29N 36°07' W 005°25'0 0.1
2016-Jan-24 06:29N 36°07' W 005°24'  
Track history (hours):
 
Tides and Currents Weather Stations Pressure Air Temp Water Temp Dewpoint Dewpoint Depression Visibility Wind Speed Wind Dir Waves Ship Positions

Ottoman Nobility

Last reported at 2016-Feb-03 05:31 UTC. Time now 2016-Feb-06 20:44 UTC.
Position N 07°41' W 014°51'.

Length 269 m; draft 8.6 m.

Type: Ship. MMSI: 271000773.

Date/timePositionNaut miles runAvg speedWind from/ knotsBaromVisibWave heightAir tempDewpointWater temp
2016-Feb-03 05:31N 07°41' W 014°51'1210.5
2016-Feb-03 04:24N 07°49' W 014°59'910.3
2016-Feb-03 03:33N 07°56' W 015°05'1110.5
2016-Feb-03 02:29N 08°04' W 015°13'1010.5
2016-Feb-03 01:33N 08°10' W 015°20'6510.7
2016-Feb-02 19:31N 08°57' W 016°05'6811.1
2016-Feb-02 13:24N 09°46' W 016°52'  
2016-Jan-29 08:13N 27°34' W 015°17'711.1
2016-Jan-29 07:33N 27°41' W 015°13'1111.2
2016-Jan-29 06:33N 27°52' W 015°13'1110.8
2016-Jan-29 05:33N 28°02' W 015°17'7 6.8
2016-Jan-29 04:33N 28°07' W 015°22'3 2.8
2016-Jan-29 03:33N 28°09' W 015°20'8 7.9
2016-Jan-29 02:33N 28°13' W 015°12'1111.2
2016-Jan-29 01:33N 28°19' W 015°01'1111.1
2016-Jan-29 00:33N 28°27' W 014°53'1211.5
2016-Jan-28 23:33N 28°38' W 014°48'  
2016-Jan-26 13:34N 35°59' W 005°31'8 8.2
2016-Jan-26 12:34N 36°04' W 005°22'4 3.8
2016-Jan-26 11:32N 36°07' W 005°24'0 0.1
2016-Jan-26 07:29N 36°07' W 005°24'0 0.1
2016-Jan-26 06:29N 36°07' W 005°24'0 0.1
2016-Jan-26 04:29N 36°07' W 005°25'0 0.1
2016-Jan-26 03:32N 36°07' W 005°24'0 0.0
2016-Jan-26 02:32N 36°07' W 005°24'0 0.1
2016-Jan-26 01:32N 36°07' W 005°24'0 0.0
2016-Jan-26 00:32N 36°07' W 005°24'0 0.0
2016-Jan-25 23:32N 36°07' W 005°24'0 0.2
2016-Jan-25 22:32N 36°07' W 005°25'0 0.0
2016-Jan-25 18:32N 36°07' W 005°25'0 0.1
2016-Jan-25 17:32N 36°07' W 005°25'0 0.0
2016-Jan-25 16:32N 36°07' W 005°24'0 0.0
2016-Jan-25 15:32N 36°07' W 005°25'0 0.1
2016-Jan-25 14:32N 36°07' W 005°24'0 0.0
2016-Jan-25 13:11N 36°07' W 005°24'0 0.0
2016-Jan-25 12:32N 36°07' W 005°24'0 0.0
2016-Jan-25 11:32N 36°07' W 005°25'0 0.0
2016-Jan-25 10:32N 36°07' W 005°25'0 0.1
2016-Jan-25 09:32N 36°07' W 005°25'0 0.1
2016-Jan-25 08:32N 36°07' W 005°25'0 0.0
2016-Jan-25 07:29N 36°07' W 005°25'0 0.0
2016-Jan-25 06:32N 36°07' W 005°25'0 0.0
2016-Jan-25 05:32N 36°07' W 005°25'0 0.0
2016-Jan-25 04:26N 36°07' W 005°25'0 0.1
2016-Jan-25 03:32N 36°07' W 005°25'0 0.1
2016-Jan-25 02:26N 36°07' W 005°25'0 0.0
2016-Jan-25 01:32N 36°07' W 005°24'0 0.0
2016-Jan-25 00:32N 36°07' W 005°24'0 0.0
2016-Jan-24 23:32N 36°07' W 005°24'0 0.0
2016-Jan-24 22:32N 36°07' W 005°24'0 0.0
2016-Jan-24 21:11N 36°07' W 005°25'0 0.0
2016-Jan-24 20:32N 36°07' W 005°25'0 0.0
2016-Jan-24 19:32N 36°07' W 005°25'0 0.0
2016-Jan-24 18:32N 36°07' W 005°25'0 0.0
2016-Jan-24 17:32N 36°07' W 005°25'0 0.1
2016-Jan-24 16:32N 36°07' W 005°25'0 0.1
2016-Jan-24 15:32N 36°07' W 005°24'0 0.0
2016-Jan-24 14:32N 36°07' W 005°24'0 0.0
2016-Jan-24 13:32N 36°07' W 005°24'0 0.0
2016-Jan-24 12:32N 36°07' W 005°24'0 0.0
2016-Jan-24 11:32N 36°07' W 005°24'0 0.1
2016-Jan-24 10:32N 36°07' W 005°25'0 0.0
2016-Jan-24 09:32N 36°07' W 005°25'0 0.0
2016-Jan-24 08:32N 36°07' W 005°25'0 0.0
2016-Jan-24 07:29N 36°07' W 005°25'0 0.1
2016-Jan-24 06:29N 36°07' W 005°24'  

Dump ship's entire track history